createdAt,value
2018-02-07T00:00:08.456Z,97586.56
2018-02-07T00:01:11.380Z,97588.91
2018-02-07T00:02:14.511Z,97592.92
2018-02-07T00:03:17.788Z,97586.09
2018-02-07T00:04:21.265Z,97591.25
2018-02-07T00:05:24.495Z,97589.47
2018-02-07T00:06:30.321Z,97593.27
2018-02-07T00:07:33.355Z,97587.72
2018-02-07T00:08:36.260Z,97589.20
2018-02-07T00:09:39.495Z,97591.86
2018-02-07T00:10:42.454Z,97591.28
2018-02-07T00:11:45.434Z,97587.54
2018-02-07T00:12:48.346Z,97590.07
2018-02-07T00:13:51.297Z,97588.00
2018-02-07T00:14:54.235Z,97586.20
2018-02-07T00:15:57.627Z,97588.37
2018-02-07T00:17:00.548Z,97587.44
2018-02-07T00:18:03.473Z,97591.49
2018-02-07T00:19:06.384Z,97590.02
2018-02-07T00:20:09.294Z,97589.78
2018-02-07T00:21:12.259Z,97588.08
2018-02-07T00:22:15.646Z,97586.02
2018-02-07T00:23:18.570Z,97590.56
2018-02-07T00:24:21.487Z,97589.78
2018-02-07T00:25:24.391Z,97583.30
2018-02-07T00:26:27.313Z,97579.06
2018-02-07T00:27:30.303Z,97583.73
2018-02-07T00:28:33.544Z,97585.72
2018-02-07T00:29:36.454Z,97579.98
2018-02-07T00:30:39.370Z,97579.16
2018-02-07T00:31:42.348Z,97579.95
2018-02-07T00:32:45.269Z,97572.81
2018-02-07T00:33:48.177Z,97574.47
2018-02-07T00:34:51.499Z,97576.25
2018-02-07T00:35:54.399Z,97570.73
2018-02-07T00:36:57.292Z,97577.34
2018-02-07T00:38:00.243Z,97574.86
2018-02-07T00:39:03.354Z,97572.36
2018-02-07T00:40:06.434Z,97573.45
2018-02-07T00:41:09.755Z,97576.68
2018-02-07T00:42:12.681Z,97578.02
2018-02-07T00:43:15.699Z,97580.87
2018-02-07T00:44:18.698Z,97586.72
2018-02-07T00:45:21.706Z,97582.53
2018-02-07T00:46:24.639Z,97582.86
2018-02-07T00:47:27.984Z,97579.81
2018-02-07T00:48:30.812Z,97582.19
2018-02-07T00:49:33.714Z,97582.21
2018-02-07T00:50:36.627Z,97577.06
2018-02-07T00:51:39.565Z,97582.65
2018-02-07T00:52:42.478Z,97579.55
2018-02-07T00:53:45.667Z,97588.36
2018-02-07T00:54:48.588Z,97581.50
2018-02-07T00:55:51.498Z,97586.43
2018-02-07T00:56:54.446Z,97586.80
2018-02-07T00:57:57.362Z,97585.09
2018-02-07T00:59:00.283Z,97583.64
2018-02-07T01:00:03.514Z,97585.63
2018-02-07T01:01:06.454Z,97591.86
2018-02-07T01:02:09.372Z,97586.82
2018-02-07T01:03:12.284Z,97588.59
2018-02-07T01:04:15.202Z,97592.91
2018-02-07T01:05:18.275Z,97590.77
2018-02-07T01:06:21.672Z,97586.77
2018-02-07T01:07:24.576Z,97591.15
2018-02-07T01:08:27.494Z,97585.66
2018-02-07T01:09:30.456Z,97586.89
2018-02-07T01:10:33.360Z,97590.62
2018-02-07T01:11:36.286Z,97590.64
2018-02-07T01:12:39.514Z,97585.27
2018-02-07T01:13:42.393Z,97585.73
2018-02-07T01:14:45.317Z,97587.48
2018-02-07T01:15:48.240Z,97590.44
2018-02-07T01:16:51.145Z,97586.95
2018-02-07T01:17:54.076Z,97589.86
2018-02-07T01:18:57.272Z,97585.87
2018-02-07T01:20:00.183Z,97590.94
2018-02-07T01:21:03.111Z,97594.80
2018-02-07T01:22:06.086Z,97590.44
2018-02-07T01:23:09.023Z,97585.27
2018-02-07T01:24:11.958Z,97588.91
2018-02-07T01:25:15.213Z,97586.50
2018-02-07T01:26:18.171Z,97589.91
2018-02-07T01:27:21.177Z,97587.25
2018-02-07T01:28:24.143Z,97587.45
2018-02-07T01:29:27.059Z,97584.13
2018-02-07T01:30:29.978Z,97589.73
2018-02-07T01:31:33.176Z,97587.17
2018-02-07T01:32:36.047Z,97588.83
2018-02-07T01:33:38.901Z,97592.63
2018-02-07T01:34:41.797Z,97592.66
2018-02-07T01:35:44.685Z,97587.92
2018-02-07T01:36:47.540Z,97589.29
2018-02-07T01:37:50.805Z,97591.09
2018-02-07T01:38:53.678Z,97590.73
2018-02-07T01:39:56.560Z,97590.50
2018-02-07T01:40:59.475Z,97589.78
2018-02-07T01:42:02.441Z,97595.30
2018-02-07T01:43:05.424Z,97588.45
2018-02-07T01:44:08.664Z,97588.06
2018-02-07T01:45:11.600Z,97595.03
2018-02-07T01:46:14.486Z,97586.98
2018-02-07T01:47:17.359Z,97584.28
2018-02-07T01:48:20.295Z,97580.09
2018-02-07T01:49:23.214Z,97586.84
2018-02-07T01:50:26.422Z,97588.34
2018-02-07T01:51:29.366Z,97593.32
2018-02-07T01:52:32.339Z,97586.66
2018-02-07T01:53:35.271Z,97593.65
2018-02-07T01:54:38.214Z,97592.92
2018-02-07T01:55:41.154Z,97593.28
2018-02-07T01:56:44.406Z,97586.95
2018-02-07T01:57:47.314Z,97592.35
2018-02-07T01:58:50.271Z,97592.35
2018-02-07T01:59:53.163Z,97594.28
2018-02-07T02:00:56.191Z,97597.95
2018-02-07T02:01:59.237Z,97594.16
2018-02-07T02:03:02.536Z,97589.07
2018-02-07T02:04:05.452Z,97592.72
2018-02-07T02:05:08.373Z,97593.27
2018-02-07T02:06:11.322Z,97594.38
2018-02-07T02:07:14.361Z,97589.00
2018-02-07T02:08:17.259Z,97594.94
2018-02-07T02:09:20.469Z,97591.33
2018-02-07T02:10:23.391Z,97587.36
2018-02-07T02:11:26.363Z,97586.41
2018-02-07T02:12:29.257Z,97587.95
2018-02-07T02:13:32.175Z,97588.00
2018-02-07T02:14:35.108Z,97585.94
2018-02-07T02:15:38.228Z,97589.42
2018-02-07T02:16:41.081Z,97583.81
2018-02-07T02:17:43.899Z,97584.20
2018-02-07T02:18:46.744Z,97583.02
2018-02-07T02:19:49.614Z,97582.42
2018-02-07T02:20:52.528Z,97580.26
2018-02-07T02:21:55.740Z,97580.45
2018-02-07T02:22:58.694Z,97576.72
2018-02-07T02:24:01.622Z,97579.43
2018-02-07T02:25:04.558Z,97575.48
2018-02-07T02:26:07.481Z,97578.22
2018-02-07T02:27:10.459Z,97573.26
2018-02-07T02:28:13.670Z,97577.28
2018-02-07T02:29:16.609Z,97572.43
2018-02-07T02:30:19.534Z,97573.05
2018-02-07T02:31:22.359Z,97575.02
2018-02-07T02:32:25.309Z,97573.48
2018-02-07T02:33:28.238Z,97571.05
2018-02-07T02:34:31.527Z,97578.86
2018-02-07T02:35:34.483Z,97575.25
2018-02-07T02:36:37.394Z,97569.51
2018-02-07T02:37:40.311Z,97571.83
2018-02-07T02:38:43.219Z,97568.94
2018-02-07T02:39:46.141Z,97559.03
2018-02-07T02:40:49.379Z,97569.86
2018-02-07T02:41:52.292Z,97564.44
2018-02-07T02:42:55.259Z,97567.83
2018-02-07T02:43:58.160Z,97565.55
2018-02-07T02:45:01.075Z,97561.59
2018-02-07T02:46:04.064Z,97567.55
2018-02-07T02:47:07.255Z,97563.16
2018-02-07T02:48:10.185Z,97565.64
2018-02-07T02:49:13.134Z,97562.59
2018-02-07T02:50:16.094Z,97559.38
2018-02-07T02:51:19.022Z,97563.41
2018-02-07T02:52:21.971Z,97563.06
2018-02-07T02:53:25.201Z,97560.20
2018-02-07T02:54:28.127Z,97562.11
2018-02-07T02:55:31.055Z,97563.43
2018-02-07T02:56:34.782Z,97560.70
2018-02-07T02:57:37.696Z,97564.94
2018-02-07T02:58:40.643Z,97559.15
2018-02-07T02:59:43.889Z,97565.06
2018-02-07T03:00:46.798Z,97571.22
2018-02-07T03:01:49.742Z,97566.42
2018-02-07T03:02:52.634Z,97569.63
2018-02-07T03:03:55.570Z,97573.31
2018-02-07T03:04:58.504Z,97565.55
2018-02-07T03:06:01.437Z,97564.75
2018-02-07T03:07:04.518Z,97563.80
2018-02-07T03:08:07.439Z,97565.50
2018-02-07T03:09:10.405Z,97569.42
2018-02-07T03:10:13.351Z,97570.83
2018-02-07T03:11:16.639Z,97572.75
2018-02-07T03:12:19.660Z,97570.02
2018-02-07T03:13:22.587Z,97568.52
2018-02-07T03:14:25.550Z,97570.45
2018-02-07T03:15:28.495Z,97576.41
2018-02-07T03:16:31.446Z,97575.30
2018-02-07T03:17:34.662Z,97573.04
2018-02-07T03:18:37.582Z,97569.09
2018-02-07T03:19:40.503Z,97570.78
2018-02-07T03:20:43.863Z,97570.95
2018-02-07T03:21:46.989Z,97576.78
2018-02-07T03:22:49.912Z,97572.59
2018-02-07T03:23:53.154Z,97562.63
2018-02-07T03:24:56.081Z,97569.58
2018-02-07T03:25:58.970Z,97568.85
2018-02-07T03:27:01.937Z,97569.06
2018-02-07T03:28:04.848Z,97572.45
2018-02-07T03:29:07.860Z,97570.83
2018-02-07T03:30:11.233Z,97567.48
2018-02-07T03:31:14.171Z,97568.70
2018-02-07T03:32:17.103Z,97566.78
2018-02-07T03:33:20.018Z,97575.98
2018-02-07T03:34:23.227Z,97563.66
2018-02-07T03:35:26.118Z,97561.29
2018-02-07T03:36:29.388Z,97564.13
2018-02-07T03:37:32.411Z,97564.30
2018-02-07T03:38:35.495Z,97561.58
2018-02-07T03:39:38.431Z,97561.22
2018-02-07T03:40:41.376Z,97570.47
2018-02-07T03:41:44.263Z,97565.87
2018-02-07T03:42:47.454Z,97568.39
2018-02-07T03:43:50.422Z,97572.36
2018-02-07T03:44:53.351Z,97574.16
2018-02-07T03:45:56.307Z,97569.73
2018-02-07T03:46:59.227Z,97572.20
2018-02-07T03:48:02.166Z,97576.80
2018-02-07T03:49:05.386Z,97576.81
2018-02-07T03:50:08.300Z,97577.25
2018-02-07T03:51:11.218Z,97578.96
2018-02-07T03:52:14.127Z,97574.87
2018-02-07T03:53:17.047Z,97571.95
2018-02-07T03:54:19.992Z,97575.93
2018-02-07T03:55:23.238Z,97572.28
2018-02-07T03:56:26.171Z,97573.31
2018-02-07T03:57:29.156Z,97574.93
2018-02-07T03:58:32.080Z,97576.30
2018-02-07T03:59:35.023Z,97580.53
2018-02-07T04:00:37.965Z,97578.63
2018-02-07T04:01:41.188Z,97586.73
2018-02-07T04:02:44.132Z,97580.97
2018-02-07T04:03:47.072Z,97582.97
2018-02-07T04:04:50.023Z,97582.99
2018-02-07T04:05:52.957Z,97578.89
2018-02-07T04:06:55.870Z,97581.48
2018-02-07T04:07:59.130Z,97577.06
2018-02-07T04:09:02.035Z,97583.88
2018-02-07T04:10:05.004Z,97580.44
2018-02-07T04:11:08.031Z,97581.95
2018-02-07T04:12:11.169Z,97580.92
2018-02-07T04:13:14.080Z,97586.01
2018-02-07T04:14:17.293Z,97584.08
2018-02-07T04:15:20.230Z,97584.73
2018-02-07T04:16:23.209Z,97587.84
2018-02-07T04:17:26.127Z,97587.20
2018-02-07T04:18:29.109Z,97587.72
2018-02-07T04:19:32.067Z,97582.53
2018-02-07T04:20:35.004Z,97582.58
2018-02-07T04:21:38.007Z,97585.78
2018-02-07T04:22:40.942Z,97586.01
2018-02-07T04:23:43.868Z,97588.56
2018-02-07T04:24:46.807Z,97583.98
2018-02-07T04:25:50.016Z,97590.16
2018-02-07T04:26:52.919Z,97587.27
2018-02-07T04:27:55.891Z,97589.70
2018-02-07T04:28:58.830Z,97586.88
2018-02-07T04:30:01.769Z,97581.38
2018-02-07T04:31:04.730Z,97582.72
2018-02-07T04:32:07.967Z,97582.52
2018-02-07T04:33:10.896Z,97588.18
2018-02-07T04:34:13.794Z,97586.33
2018-02-07T04:35:16.649Z,97586.95
2018-02-07T04:36:19.518Z,97586.39
2018-02-07T04:37:22.500Z,97583.17
2018-02-07T04:38:25.778Z,97594.13
2018-02-07T04:39:28.706Z,97584.92
2018-02-07T04:40:31.643Z,97594.55
2018-02-07T04:41:34.550Z,97591.21
2018-02-07T04:42:37.520Z,97588.39
2018-02-07T04:43:40.444Z,97588.91
2018-02-07T04:44:43.671Z,97586.05
2018-02-07T04:45:46.591Z,97587.05
2018-02-07T04:46:49.510Z,97589.17
2018-02-07T04:47:52.433Z,97592.14
2018-02-07T04:48:55.351Z,97589.84
2018-02-07T04:49:58.270Z,97590.80
2018-02-07T04:51:01.661Z,97589.82
2018-02-07T04:52:04.622Z,97591.56
2018-02-07T04:53:07.570Z,97586.60
2018-02-07T04:54:10.496Z,97590.50
2018-02-07T04:55:13.436Z,97587.91
2018-02-07T04:56:16.360Z,97587.02
2018-02-07T04:57:19.601Z,97586.48
2018-02-07T04:58:22.509Z,97594.16
2018-02-07T04:59:25.468Z,97587.16
2018-02-07T05:00:28.412Z,97589.48
2018-02-07T05:01:31.324Z,97591.03
2018-02-07T05:02:34.217Z,97590.98
2018-02-07T05:03:37.414Z,97592.72
2018-02-07T05:04:40.329Z,97587.13
2018-02-07T05:05:43.246Z,97590.62
2018-02-07T05:06:46.155Z,97590.03
2018-02-07T05:07:49.067Z,97584.04
2018-02-07T05:08:51.990Z,97585.91
2018-02-07T05:09:55.178Z,97582.19
2018-02-07T05:10:58.121Z,97588.20
2018-02-07T05:12:01.062Z,97587.86
2018-02-07T05:13:03.991Z,97590.45
2018-02-07T05:14:06.929Z,97588.12
2018-02-07T05:15:09.840Z,97586.60
2018-02-07T05:16:13.056Z,97586.47
2018-02-07T05:17:15.972Z,97582.23
2018-02-07T05:18:18.903Z,97584.30
2018-02-07T05:19:21.846Z,97586.61
2018-02-07T05:20:24.759Z,97581.03
2018-02-07T05:21:27.717Z,97582.96
2018-02-07T05:22:30.912Z,97585.63
2018-02-07T05:23:33.846Z,97585.05
2018-02-07T05:24:36.812Z,97583.17
2018-02-07T05:25:39.742Z,97587.00
2018-02-07T05:26:42.639Z,97583.80
2018-02-07T05:27:45.721Z,97584.13
2018-02-07T05:28:48.931Z,97589.36
2018-02-07T05:29:51.874Z,97592.78
2018-02-07T05:30:54.837Z,97593.22
2018-02-07T05:31:57.739Z,97594.67
2018-02-07T05:33:00.687Z,97597.17
2018-02-07T05:34:03.599Z,97595.22
2018-02-07T05:35:06.894Z,97601.98
2018-02-07T05:36:09.821Z,97596.16
2018-02-07T05:37:12.736Z,97595.26
2018-02-07T05:38:15.604Z,97598.70
2018-02-07T05:39:18.461Z,97596.73
2018-02-07T05:40:21.335Z,97596.27
2018-02-07T05:41:24.481Z,97595.94
2018-02-07T05:42:27.320Z,97597.33
2018-02-07T05:43:30.119Z,97598.56
2018-02-07T05:44:33.072Z,97597.48
2018-02-07T05:45:36.020Z,97596.08
2018-02-07T05:46:38.974Z,97592.47
2018-02-07T05:47:42.186Z,97596.93
2018-02-07T05:48:45.125Z,97595.03
2018-02-07T05:49:48.198Z,97596.34
2018-02-07T05:50:51.150Z,97595.52
2018-02-07T05:51:54.104Z,97595.69
2018-02-07T05:52:57.046Z,97599.16
2018-02-07T05:54:00.045Z,97597.84
2018-02-07T05:55:02.990Z,97590.22
2018-02-07T05:56:06.091Z,97593.08
2018-02-07T05:57:08.972Z,97595.69
2018-02-07T05:58:11.886Z,97596.50
2018-02-07T05:59:15.132Z,97592.26
2018-02-07T06:00:18.090Z,97595.77
2018-02-07T06:01:21.002Z,97591.33
2018-02-07T06:02:23.936Z,97598.02
2018-02-07T06:03:26.880Z,97592.85
2018-02-07T06:04:29.797Z,97595.15
2018-02-07T06:05:33.164Z,97583.97
2018-02-07T06:06:36.266Z,97596.08
2018-02-07T06:07:39.553Z,97592.13
2018-02-07T06:08:42.578Z,97599.80
2018-02-07T06:09:45.551Z,97596.93
2018-02-07T06:10:48.510Z,97604.42
2018-02-07T06:11:51.802Z,97604.67
2018-02-07T06:12:54.843Z,97610.46
2018-02-07T06:13:57.842Z,97601.39
2018-02-07T06:15:00.857Z,97607.20
2018-02-07T06:16:03.790Z,97603.77
2018-02-07T06:17:06.761Z,97611.67
2018-02-07T06:18:10.084Z,97604.17
2018-02-07T06:19:13.112Z,97606.63
2018-02-07T06:20:16.049Z,97608.94
2018-02-07T06:21:19.259Z,97610.08
2018-02-07T06:22:22.210Z,97610.30
2018-02-07T06:23:25.169Z,97608.03
2018-02-07T06:24:28.417Z,97606.89
2018-02-07T06:25:31.806Z,97609.34
2018-02-07T06:26:34.699Z,97612.42
2018-02-07T06:27:37.720Z,97606.45
2018-02-07T06:28:40.643Z,97607.61
2018-02-07T06:29:43.588Z,97606.45
2018-02-07T06:30:46.788Z,97609.91
2018-02-07T06:31:49.768Z,97607.24
2018-02-07T06:32:52.693Z,97611.48
2018-02-07T06:33:55.567Z,97613.39
2018-02-07T06:34:58.543Z,97613.01
2018-02-07T06:36:01.619Z,97619.73
2018-02-07T06:37:04.934Z,97623.59
2018-02-07T06:38:07.880Z,97627.45
2018-02-07T06:39:10.820Z,97620.34
2018-02-07T06:40:13.779Z,97629.52
2018-02-07T06:41:16.698Z,97633.17
2018-02-07T06:42:19.639Z,97635.47
2018-02-07T06:43:23.022Z,97633.69
2018-02-07T06:44:25.968Z,97636.56
2018-02-07T06:45:28.907Z,97639.04
2018-02-07T06:46:31.844Z,97633.02
2018-02-07T06:47:34.914Z,97633.07
2018-02-07T06:48:37.870Z,97636.13
2018-02-07T06:49:41.142Z,97637.00
2018-02-07T06:50:44.106Z,97633.94
2018-02-07T06:51:47.033Z,97632.21
2018-02-07T06:52:49.960Z,97634.70
2018-02-07T06:53:52.867Z,97633.82
2018-02-07T06:54:55.822Z,97641.27
2018-02-07T06:55:59.205Z,97637.21
2018-02-07T06:57:02.115Z,97637.00
2018-02-07T06:58:05.168Z,97640.91
2018-02-07T06:59:08.095Z,97645.11
2018-02-07T07:00:11.057Z,97650.91
2018-02-07T07:01:14.036Z,97645.86
2018-02-07T07:02:16.976Z,97644.67
2018-02-07T07:03:19.918Z,97649.15
2018-02-07T07:04:22.848Z,97652.84
2018-02-07T07:05:25.786Z,97660.83
2018-02-07T07:06:28.731Z,97660.69
2018-02-07T07:07:31.841Z,97658.94
2018-02-07T07:08:35.316Z,97655.84
2018-02-07T07:09:38.234Z,97655.86
2018-02-07T07:10:41.234Z,97660.16
2018-02-07T07:11:44.244Z,97658.27
2018-02-07T07:12:47.178Z,97662.06
2018-02-07T07:13:50.130Z,97660.41
2018-02-07T07:14:53.468Z,97660.07
2018-02-07T07:15:56.395Z,97659.30
2018-02-07T07:16:59.333Z,97667.05
2018-02-07T07:18:02.264Z,97659.75
2018-02-07T07:19:05.210Z,97669.85
2018-02-07T07:20:08.148Z,97668.61
2018-02-07T07:21:11.548Z,97665.73
2018-02-07T07:22:14.462Z,97668.69
2018-02-07T07:23:17.590Z,97670.29
2018-02-07T07:24:20.514Z,97680.06
2018-02-07T07:25:23.477Z,97678.45
2018-02-07T07:26:26.414Z,97675.53
2018-02-07T07:27:29.973Z,97674.53
2018-02-07T07:28:32.936Z,97675.33
2018-02-07T07:29:35.905Z,97677.27
2018-02-07T07:30:38.840Z,97679.65
2018-02-07T07:31:41.761Z,97676.97
2018-02-07T07:32:44.675Z,97681.37
2018-02-07T07:33:48.156Z,97685.66
2018-02-07T07:34:51.187Z,97686.46
2018-02-07T07:35:54.110Z,97683.17
2018-02-07T07:36:57.046Z,97693.62
2018-02-07T07:38:00.031Z,97693.07
2018-02-07T07:39:03.186Z,97690.41
2018-02-07T07:40:06.585Z,97688.29
2018-02-07T07:41:09.540Z,97687.16
2018-02-07T07:42:12.609Z,97688.39
2018-02-07T07:43:15.460Z,97688.39
2018-02-07T07:44:18.442Z,97688.14
2018-02-07T07:45:21.357Z,97691.70
2018-02-07T07:46:24.578Z,97690.25
2018-02-07T07:47:27.499Z,97696.58
2018-02-07T07:48:30.519Z,97694.09
2018-02-07T07:49:33.650Z,97692.59
2018-02-07T07:50:36.585Z,97700.72
2018-02-07T07:51:39.524Z,97702.85
2018-02-07T07:52:42.913Z,97701.46
2018-02-07T07:53:45.873Z,97701.46
2018-02-07T07:54:49.079Z,97707.45
2018-02-07T07:55:51.999Z,97711.33
2018-02-07T07:56:54.899Z,97711.59
2018-02-07T07:57:57.814Z,97712.20
2018-02-07T07:59:01.317Z,97710.03
2018-02-07T08:00:04.287Z,97713.73
2018-02-07T08:01:07.340Z,97711.59
2018-02-07T08:02:10.318Z,97717.83
2018-02-07T08:03:13.324Z,97711.26
2018-02-07T08:04:16.255Z,97708.39
2018-02-07T08:05:19.524Z,97716.00
2018-02-07T08:06:22.494Z,97715.95
2018-02-07T08:07:25.446Z,97713.98
2018-02-07T08:08:28.391Z,97708.22
2018-02-07T08:09:31.420Z,97711.19
2018-02-07T08:10:34.370Z,97713.45
2018-02-07T08:11:37.591Z,97707.71
2018-02-07T08:12:40.527Z,97710.51
2018-02-07T08:13:43.449Z,97706.17
2018-02-07T08:14:46.371Z,97704.92
2018-02-07T08:15:49.308Z,97705.66
2018-02-07T08:16:52.275Z,97708.09
2018-02-07T08:17:55.555Z,97709.27
2018-02-07T08:18:58.498Z,97702.89
2018-02-07T08:20:01.455Z,97708.61
2018-02-07T08:21:04.299Z,97709.53
2018-02-07T08:22:07.138Z,97717.27
2018-02-07T08:23:09.981Z,97721.06
2018-02-07T08:24:13.236Z,97715.57
2018-02-07T08:25:16.175Z,97714.91
2018-02-07T08:26:19.151Z,97722.64
2018-02-07T08:27:22.001Z,97713.75
2018-02-07T08:28:25.036Z,97717.69
2018-02-07T08:29:27.985Z,97724.50
2018-02-07T08:30:31.403Z,97721.45
2018-02-07T08:31:34.355Z,97719.56
2018-02-07T08:32:37.952Z,97723.36
2018-02-07T08:33:40.930Z,97722.06
2018-02-07T08:34:43.930Z,97721.57
2018-02-07T08:35:46.942Z,97721.03
2018-02-07T08:36:50.032Z,97720.70
2018-02-07T08:37:52.945Z,97725.44
2018-02-07T08:38:55.917Z,97723.28
2018-02-07T08:39:58.878Z,97725.89
2018-02-07T08:41:02.132Z,97725.55
2018-02-07T08:42:05.102Z,97726.22
2018-02-07T08:43:08.369Z,97723.94
2018-02-07T08:44:11.350Z,97730.59
2018-02-07T08:45:14.330Z,97731.32
2018-02-07T08:46:17.262Z,97733.28
2018-02-07T08:47:20.250Z,97727.04
2018-02-07T08:48:23.218Z,97725.36
2018-02-07T08:49:26.583Z,97731.63
2018-02-07T08:50:29.515Z,97729.59
2018-02-07T08:51:32.651Z,97731.39
2018-02-07T08:52:35.578Z,97727.04
2018-02-07T08:53:38.516Z,97727.61
2018-02-07T08:54:41.555Z,97727.32
2018-02-07T08:55:44.986Z,97723.88
2018-02-07T08:56:48.000Z,97729.66
2018-02-07T08:57:50.913Z,97729.43
2018-02-07T08:58:53.875Z,97729.91
2018-02-07T08:59:56.790Z,97727.67
2018-02-07T09:00:59.711Z,97734.14
2018-02-07T09:02:02.994Z,97737.98
2018-02-07T09:03:06.007Z,97736.61
2018-02-07T09:04:08.922Z,97733.12
2018-02-07T09:05:11.905Z,97734.30
2018-02-07T09:06:14.886Z,97732.41
2018-02-07T09:07:17.858Z,97731.69
2018-02-07T09:08:21.327Z,97730.05
2018-02-07T09:09:24.271Z,97724.72
2018-02-07T09:10:27.212Z,97739.93
2018-02-07T09:11:30.133Z,97727.67
2018-02-07T09:12:33.142Z,97729.48
2018-02-07T09:13:36.149Z,97726.59
2018-02-07T09:14:39.425Z,97731.64
2018-02-07T09:15:42.431Z,97732.25
2018-02-07T09:16:45.372Z,97740.86
2018-02-07T09:17:48.367Z,97736.11
2018-02-07T09:18:51.334Z,97737.86
2018-02-07T09:19:54.362Z,97738.30
2018-02-07T09:20:57.629Z,97744.47
2018-02-07T09:22:00.538Z,97742.75
2018-02-07T09:23:03.492Z,97740.64
2018-02-07T09:24:06.478Z,97745.14
2018-02-07T09:25:09.590Z,97747.33
2018-02-07T09:26:12.729Z,97750.92
2018-02-07T09:27:16.588Z,97749.12
2018-02-07T09:28:19.564Z,97749.12
2018-02-07T09:29:22.654Z,97749.27
2018-02-07T09:30:26.341Z,97750.84
2018-02-07T09:31:30.018Z,97760.93
2018-02-07T09:32:33.090Z,97759.84
2018-02-07T09:33:36.543Z,97763.19
2018-02-07T09:34:40.703Z,97762.28
2018-02-07T09:35:44.870Z,97762.36
2018-02-07T09:36:49.238Z,97757.37
2018-02-07T09:37:53.303Z,97767.83
2018-02-07T09:38:56.535Z,97763.42
2018-02-07T09:40:00.240Z,97765.79
2018-02-07T09:41:03.420Z,97765.25
2018-02-07T09:42:06.551Z,97778.15
2018-02-07T09:43:10.412Z,97774.11
2018-02-07T09:44:13.991Z,97775.11
2018-02-07T09:45:17.373Z,97770.88
2018-02-07T09:46:21.572Z,97777.94
2018-02-07T09:47:24.730Z,97770.84
2018-02-07T09:48:28.342Z,97769.59
2018-02-07T09:49:31.791Z,97769.98
2018-02-07T09:50:36.218Z,97771.09
2018-02-07T09:51:39.263Z,97773.45
2018-02-07T09:52:42.757Z,97771.31
2018-02-07T09:53:48.650Z,97766.52
2018-02-07T09:54:54.381Z,97768.34
2018-02-07T09:55:59.314Z,97769.73
2018-02-07T09:57:02.999Z,97769.06
2018-02-07T09:58:06.932Z,97773.13
2018-02-07T09:59:12.210Z,97777.97
2018-02-07T10:00:15.664Z,97778.89
2018-02-07T10:01:19.420Z,97778.92
2018-02-07T10:02:22.889Z,97775.83
2018-02-07T10:03:26.512Z,97777.55
2018-02-07T10:04:30.349Z,97783.75
2018-02-07T10:05:34.882Z,97778.77
2018-02-07T10:06:38.116Z,97783.78
2018-02-07T10:07:42.129Z,97784.80
2018-02-07T10:08:45.557Z,97785.09
2018-02-07T10:09:48.520Z,97785.48
2018-02-07T10:10:51.736Z,97791.06
2018-02-07T10:11:55.489Z,97788.83
2018-02-07T10:12:58.418Z,97789.92
2018-02-07T10:14:01.313Z,97788.77
2018-02-07T10:15:04.227Z,97791.63
2018-02-07T10:16:07.139Z,97784.87
2018-02-07T10:17:10.124Z,97792.88
2018-02-07T10:18:13.262Z,97792.06
2018-02-07T10:19:16.027Z,97790.49
2018-02-07T10:20:18.802Z,97785.97
2018-02-07T10:21:21.583Z,97790.06
2018-02-07T10:22:24.400Z,97793.34
2018-02-07T10:23:27.324Z,97795.38
2018-02-07T10:24:30.568Z,97793.39
2018-02-07T10:25:33.544Z,97791.36
2018-02-07T10:26:36.536Z,97793.36
2018-02-07T10:27:39.437Z,97804.19
2018-02-07T10:28:42.382Z,97795.16
2018-02-07T10:29:45.336Z,97808.39
2018-02-07T10:30:48.719Z,97800.56
2018-02-07T10:31:51.685Z,97802.12
2018-02-07T10:32:54.773Z,97805.69
2018-02-07T10:33:57.703Z,97809.84
2018-02-07T10:35:00.693Z,97814.48
2018-02-07T10:36:03.668Z,97813.30
2018-02-07T10:37:07.089Z,97807.72
2018-02-07T10:38:09.939Z,97814.66
2018-02-07T10:39:12.882Z,97821.05
2018-02-07T10:40:15.805Z,97813.12
2018-02-07T10:41:18.780Z,97814.45
2018-02-07T10:42:21.700Z,97818.72
2018-02-07T10:43:25.088Z,97815.41
2018-02-07T10:44:28.285Z,97818.30
2018-02-07T10:45:31.168Z,97817.15
2018-02-07T10:46:34.015Z,97816.77
2018-02-07T10:47:36.916Z,97817.73
2018-02-07T10:48:39.749Z,97816.16
2018-02-07T10:49:43.311Z,97820.58
2018-02-07T10:50:46.306Z,97820.16
2018-02-07T10:51:49.273Z,97817.86
2018-02-07T10:52:52.326Z,97816.89
2018-02-07T10:53:55.336Z,97818.80
2018-02-07T10:54:58.356Z,97819.38
2018-02-07T10:56:01.641Z,97815.47
2018-02-07T10:57:04.595Z,97814.37
2018-02-07T10:58:07.586Z,97817.59
2018-02-07T10:59:10.621Z,97812.96
2018-02-07T11:00:13.696Z,97812.87
2018-02-07T11:01:16.742Z,97809.22
2018-02-07T11:02:20.200Z,97807.70
2018-02-07T11:03:23.218Z,97809.02
2018-02-07T11:04:26.154Z,97807.80
2018-02-07T11:05:29.115Z,97808.38
2018-02-07T11:06:32.033Z,97810.62
2018-02-07T11:07:34.991Z,97804.09
2018-02-07T11:08:38.393Z,97808.43
2018-02-07T11:09:41.393Z,97809.45
2018-02-07T11:10:44.272Z,97816.03
2018-02-07T11:11:47.219Z,97814.81
2018-02-07T11:12:50.201Z,97815.11
2018-02-07T11:13:53.205Z,97810.81
2018-02-07T11:14:56.524Z,97816.61
2018-02-07T11:16:00.477Z,97814.34
2018-02-07T11:17:08.314Z,97810.16
2018-02-07T11:18:11.440Z,97807.23
2018-02-07T11:19:14.509Z,97808.03
2018-02-07T11:20:18.222Z,97810.00
2018-02-07T11:21:21.617Z,97807.81
2018-02-07T11:22:24.994Z,97807.61
2018-02-07T11:23:28.626Z,97800.45
2018-02-07T11:24:31.605Z,97809.06
2018-02-07T11:25:34.511Z,97799.02
2018-02-07T11:26:37.650Z,97804.59
2018-02-07T11:27:41.033Z,97807.07
2018-02-07T11:28:45.796Z,97800.14
2018-02-07T11:29:48.826Z,97805.74
2018-02-07T11:30:51.951Z,97802.09
2018-02-07T11:31:55.626Z,97802.88
2018-02-07T11:32:59.013Z,97801.52
2018-02-07T11:34:02.418Z,97801.88
2018-02-07T11:35:05.369Z,97800.27
2018-02-07T11:36:08.461Z,97802.25
2018-02-07T11:37:11.535Z,97798.89
2018-02-07T11:38:14.455Z,97802.26
2018-02-07T11:39:17.418Z,97805.97
2018-02-07T11:40:21.017Z,97801.86
2018-02-07T11:41:24.091Z,97804.00
2018-02-07T11:42:27.112Z,97805.39
2018-02-07T11:43:30.143Z,97801.86
2018-02-07T11:44:33.683Z,97808.00
2018-02-07T11:45:37.672Z,97806.30
2018-02-07T11:46:40.887Z,97808.35
2018-02-07T11:47:43.784Z,97803.66
2018-02-07T11:48:47.106Z,97804.94
2018-02-07T11:49:50.397Z,97810.50
2018-02-07T11:50:53.633Z,97807.84
2018-02-07T11:51:57.374Z,97813.13
2018-02-07T11:53:00.884Z,97817.20
2018-02-07T11:54:05.514Z,97815.84
2018-02-07T11:55:08.911Z,97813.86
2018-02-07T11:56:12.580Z,97813.79
2018-02-07T11:57:15.848Z,97821.84
2018-02-07T11:58:20.024Z,97817.92
2018-02-07T11:59:23.403Z,97815.47
2018-02-07T12:00:26.696Z,97817.78
2018-02-07T12:01:29.811Z,97805.16
2018-02-07T12:02:32.886Z,97813.27
2018-02-07T12:03:35.880Z,97810.76
2018-02-07T12:04:39.106Z,97808.84
2018-02-07T12:05:42.397Z,97815.02
2018-02-07T12:06:45.439Z,97813.72
2018-02-07T12:07:48.471Z,97808.92
2018-02-07T12:08:51.774Z,97810.81
2018-02-07T12:09:54.608Z,97809.85
2018-02-07T12:10:59.681Z,97803.33
2018-02-07T12:12:03.013Z,97803.36
2018-02-07T12:13:06.194Z,97807.42
2018-02-07T12:14:09.515Z,97805.44
2018-02-07T12:15:14.738Z,97806.37
2018-02-07T12:16:18.401Z,97804.23
2018-02-07T12:17:22.119Z,97800.69
2018-02-07T12:18:25.773Z,97801.10
2018-02-07T12:19:29.513Z,97801.91
2018-02-07T12:20:32.494Z,97800.38